sensor_id;sensor_type;location;lat;lon;timestamp;P1;durP1;ratioP1;P2;durP2;ratioP2
2652;SDS011;1336;48.692;9.144;2023-04-23T05:00:23;1.77;;;1.67;;
2652;SDS011;1336;48.692;9.144;2023-04-23T05:01:17;1.50;;;1.40;;
2652;SDS011;1336;48.692;9.144;2023-04-23T05:02:09;2.15;;;1.60;;
2652;SDS011;1336;48.692;9.144;2023-04-23T05:03:01;1.70;;;1.52;;
2652;SDS011;1336;48.692;9.144;2023-04-23T05:03:52;2.25;;;1.45;;
2652;SDS011;1336;48.692;9.144;2023-04-23T05:04:44;1.63;;;1.52;;
2652;SDS011;1336;48.692;9.144;2023-04-23T05:05:35;1.27;;;1.10;;
2652;SDS011;1336;48.692;9.144;2023-04-23T05:06:26;1.45;;;1.35;;
2652;SDS011;1336;48.692;9.144;2023-04-23T05:07:17;1.37;;;1.27;;
2652;SDS011;1336;48.692;9.144;2023-04-23T05:08:09;1.70;;;1.60;;
2652;SDS011;1336;48.692;9.144;2023-04-23T05:09:00;1.90;;;1.60;;
2652;SDS011;1336;48.692;9.144;2023-04-23T05:09:52;1.52;;;1.40;;
2652;SDS011;1336;48.692;9.144;2023-04-23T05:10:43;3.83;;;1.50;;
2652;SDS011;1336;48.692;9.144;2023-04-23T05:11:35;1.90;;;1.55;;
2652;SDS011;1336;48.692;9.144;2023-04-23T05:12:26;1.53;;;1.30;;
2652;SDS011;1336;48.692;9.144;2023-04-23T05:13:18;1.83;;;1.58;;
2652;SDS011;1336;48.692;9.144;2023-04-23T05:14:08;1.47;;;1.23;;
2652;SDS011;1336;48.692;9.144;2023-04-23T05:15:00;2.15;;;1.10;;
2652;SDS011;1336;48.692;9.144;2023-04-23T05:15:52;1.70;;;1.50;;
2652;SDS011;1336;48.692;9.144;2023-04-23T05:16:44;1.20;;;1.10;;
2652;SDS011;1336;48.692;9.144;2023-04-23T05:17:35;2.10;;;1.60;;
2652;SDS011;1336;48.692;9.144;2023-04-23T05:18:26;6.10;;;1.48;;
2652;SDS011;1336;48.692;9.144;2023-04-23T05:19:18;1.35;;;1.25;;
2652;SDS011;1336;48.692;9.144;2023-04-23T05:20:10;2.50;;;1.50;;
2652;SDS011;1336;48.692;9.144;2023-04-23T05:21:01;1.20;;;1.10;;
2652;SDS011;1336;48.692;9.144;2023-04-23T05:21:53;1.40;;;1.30;;
2652;SDS011;1336;48.692;9.144;2023-04-23T05:22:43;2.90;;;2.60;;
2652;SDS011;1336;48.692;9.144;2023-04-23T05:23:35;2.30;;;2.10;;
2652;SDS011;1336;48.692;9.144;2023-04-23T05:24:26;2.60;;;2.40;;
2652;SDS011;1336;48.692;9.144;2023-04-23T05:25:18;2.85;;;2.55;;
2652;SDS011;1336;48.692;9.144;2023-04-23T05:26:08;2.13;;;1.97;;
2652;SDS011;1336;48.692;9.144;2023-04-23T05:27:00;1.90;;;1.80;;
2652;SDS011;1336;48.692;9.144;2023-04-23T05:27:51;1.47;;;1.37;;
2652;SDS011;1336;48.692;9.144;2023-04-23T05:28:43;1.70;;;1.30;;
2652;SDS011;1336;48.692;9.144;2023-04-23T05:29:33;1.67;;;1.40;;
2652;SDS011;1336;48.692;9.144;2023-04-23T05:30:25;1.63;;;1.10;;
2652;SDS011;1336;48.692;9.144;2023-04-23T05:31:17;1.27;;;1.00;;
2652;SDS011;1336;48.692;9.144;2023-04-23T05:32:09;2.10;;;1.10;;
2652;SDS011;1336;48.692;9.144;2023-04-23T05:33:00;1.23;;;1.13;;
2652;SDS011;1336;48.692;9.144;2023-04-23T05:33:52;2.30;;;1.52;;
2652;SDS011;1336;48.692;9.144;2023-04-23T05:34:42;1.20;;;1.00;;
2652;SDS011;1336;48.692;9.144;2023-04-23T05:35:34;1.08;;;1.00;;
2652;SDS011;1336;48.692;9.144;2023-04-23T05:36:25;1.33;;;1.13;;
2652;SDS011;1336;48.692;9.144;2023-04-23T05:37:17;1.83;;;1.58;;
2652;SDS011;1336;48.692;9.144;2023-04-23T05:38:08;1.53;;;1.07;;
2652;SDS011;1336;48.692;9.144;2023-04-23T05:39:00;2.53;;;1.40;;
2652;SDS011;1336;48.692;9.144;2023-04-23T05:39:51;1.27;;;1.17;;
2652;SDS011;1336;48.692;9.144;2023-04-23T05:40:43;1.67;;;1.25;;
2652;SDS011;1336;48.692;9.144;2023-04-23T05:41:33;1.97;;;1.10;;
2652;SDS011;1336;48.692;9.144;2023-04-23T05:42:25;1.10;;;1.00;;
2652;SDS011;1336;48.692;9.144;2023-04-23T05:43:16;1.30;;;1.20;;
2652;SDS011;1336;48.692;9.144;2023-04-23T05:44:07;2.57;;;1.20;;
2652;SDS011;1336;48.692;9.144;2023-04-23T05:44:58;1.27;;;1.17;;
2652;SDS011;1336;48.692;9.144;2023-04-23T05:45:49;0.90;;;0.90;;
2652;SDS011;1336;48.692;9.144;2023-04-23T05:46:43;1.20;;;1.10;;
2652;SDS011;1336;48.692;9.144;2023-04-23T05:47:34;1.25;;;1.15;;
2652;SDS011;1336;48.692;9.144;2023-04-23T05:48:25;1.40;;;1.23;;
2652;SDS011;1336;48.692;9.144;2023-04-23T05:49:16;1.10;;;1.00;;
2652;SDS011;1336;48.692;9.144;2023-04-23T05:50:08;1.52;;;1.10;;
2652;SDS011;1336;48.692;9.144;2023-04-23T05:51:00;1.10;;;1.00;;
2652;SDS011;1336;48.692;9.144;2023-04-23T05:51:52;1.75;;;1.00;;
2652;SDS011;1336;48.692;9.144;2023-04-23T05:52:43;1.00;;;0.90;;
2652;SDS011;1336;48.692;9.144;2023-04-23T05:53:34;1.50;;;1.15;;
2652;SDS011;1336;48.692;9.144;2023-04-23T05:54:25;1.43;;;1.10;;
2652;SDS011;1336;48.692;9.144;2023-04-23T05:55:17;1.52;;;1.00;;
2652;SDS011;1336;48.692;9.144;2023-04-23T05:56:09;1.80;;;1.10;;
2652;SDS011;1336;48.692;9.144;2023-04-23T05:57:01;1.10;;;1.00;;
2652;SDS011;1336;48.692;9.144;2023-04-23T05:57:52;1.42;;;1.33;;
2652;SDS011;1336;48.692;9.144;2023-04-23T05:58:45;1.60;;;1.30;;
2652;SDS011;1336;48.692;9.144;2023-04-23T05:59:35;1.30;;;1.02;;
2652;SDS011;1336;48.692;9.144;2023-04-23T06:00:27;1.10;;;1.00;;
2652;SDS011;1336;48.692;9.144;2023-04-23T06:01:18;1.30;;;1.00;;
2652;SDS011;1336;48.692;9.144;2023-04-23T06:02:11;1.20;;;1.10;;
2652;SDS011;1336;48.692;9.144;2023-04-23T06:03:02;1.40;;;1.30;;
2652;SDS011;1336;48.692;9.144;2023-04-23T06:03:53;1.10;;;1.00;;
2652;SDS011;1336;48.692;9.144;2023-04-23T06:04:44;1.53;;;1.17;;
2652;SDS011;1336;48.692;9.144;2023-04-23T06:05:36;1.10;;;1.00;;
2652;SDS011;1336;48.692;9.144;2023-04-23T06:06:27;1.27;;;1.17;;
2652;SDS011;1336;48.692;9.144;2023-04-23T06:07:18;1.48;;;1.15;;
2652;SDS011;1336;48.692;9.144;2023-04-23T06:08:09;1.53;;;1.40;;
2652;SDS011;1336;48.692;9.144;2023-04-23T06:09:01;1.85;;;1.35;;
2652;SDS011;1336;48.692;9.144;2023-04-23T06:09:52;1.43;;;1.33;;
2652;SDS011;1336;48.692;9.144;2023-04-23T06:10:43;1.40;;;1.00;;
2652;SDS011;1336;48.692;9.144;2023-04-23T06:11:34;1.30;;;1.20;;
2652;SDS011;1336;48.692;9.144;2023-04-23T06:12:26;1.52;;;1.30;;
2652;SDS011;1336;48.692;9.144;2023-04-23T06:13:17;1.40;;;1.30;;
2652;SDS011;1336;48.692;9.144;2023-04-23T06:14:09;1.42;;;1.33;;
2652;SDS011;1336;48.692;9.144;2023-04-23T06:15:00;1.40;;;1.30;;
2652;SDS011;1336;48.692;9.144;2023-04-23T06:15:51;1.65;;;1.20;;
2652;SDS011;1336;48.692;9.144;2023-04-23T06:16:42;2.30;;;1.20;;
2652;SDS011;1336;48.692;9.144;2023-04-23T06:17:35;1.27;;;1.17;;
2652;SDS011;1336;48.692;9.144;2023-04-23T06:18:26;1.35;;;1.17;;
2652;SDS011;1336;48.692;9.144;2023-04-23T06:19:18;1.48;;;1.20;;
2652;SDS011;1336;48.692;9.144;2023-04-23T06:20:09;1.80;;;1.00;;
2652;SDS011;1336;48.692;9.144;2023-04-23T06:21:01;1.30;;;1.20;;
2652;SDS011;1336;48.692;9.144;2023-04-23T06:21:53;1.90;;;1.20;;
2652;SDS011;1336;48.692;9.144;2023-04-23T06:22:45;1.10;;;0.80;;
2652;SDS011;1336;48.692;9.144;2023-04-23T06:23:35;1.07;;;0.97;;
2652;SDS011;1336;48.692;9.144;2023-04-23T06:24:27;1.05;;;0.95;;
2652;SDS011;1336;48.692;9.144;2023-04-23T06:25:18;1.20;;;1.10;;
2652;SDS011;1336;48.692;9.144;2023-04-23T06:26:10;1.55;;;1.15;;
2652;SDS011;1336;48.692;9.144;2023-04-23T06:27:00;1.20;;;1.10;;
2652;SDS011;1336;48.692;9.144;2023-04-23T06:27:52;1.20;;;1.10;;
2652;SDS011;1336;48.692;9.144;2023-04-23T06:28:43;1.37;;;0.97;;
2652;SDS011;1336;48.692;9.144;2023-04-23T06:29:35;1.23;;;1.13;;
2652;SDS011;1336;48.692;9.144;2023-04-23T06:30:26;1.63;;;1.23;;
2652;SDS011;1336;48.692;9.144;2023-04-23T06:31:18;1.60;;;1.15;;
2652;SDS011;1336;48.692;9.144;2023-04-23T06:32:09;1.93;;;1.20;;
2652;SDS011;1336;48.692;9.144;2023-04-23T06:33:02;0.90;;;0.90;;
2652;SDS011;1336;48.692;9.144;2023-04-23T06:33:52;1.42;;;1.33;;
2652;SDS011;1336;48.692;9.144;2023-04-23T06:34:44;1.20;;;1.10;;
2652;SDS011;1336;48.692;9.144;2023-04-23T06:35:35;2.10;;;0.95;;
2652;SDS011;1336;48.692;9.144;2023-04-23T06:36:27;1.40;;;1.05;;
2652;SDS011;1336;48.692;9.144;2023-04-23T06:37:18;1.00;;;0.90;;
2652;SDS011;1336;48.692;9.144;2023-04-23T06:38:10;0.85;;;0.80;;
2652;SDS011;1336;48.692;9.144;2023-04-23T06:39:00;1.27;;;0.97;;
2652;SDS011;1336;48.692;9.144;2023-04-23T06:39:52;1.73;;;1.10;;
2652;SDS011;1336;48.692;9.144;2023-04-23T06:40:43;1.67;;;0.90;;
2652;SDS011;1336;48.692;9.144;2023-04-23T06:41:35;1.10;;;1.00;;
2652;SDS011;1336;48.692;9.144;2023-04-23T06:42:25;2.10;;;1.20;;
2652;SDS011;1336;48.692;9.144;2023-04-23T06:43:17;1.48;;;0.90;;
2652;SDS011;1336;48.692;9.144;2023-04-23T06:44:08;1.30;;;1.00;;
2652;SDS011;1336;48.692;9.144;2023-04-23T06:45:00;1.50;;;0.98;;
2652;SDS011;1336;48.692;9.144;2023-04-23T06:45:53;1.60;;;1.20;;
2652;SDS011;1336;48.692;9.144;2023-04-23T06:46:45;1.40;;;0.88;;
2652;SDS011;1336;48.692;9.144;2023-04-23T06:47:36;1.57;;;1.47;;
2652;SDS011;1336;48.692;9.144;2023-04-23T06:48:29;1.30;;;0.90;;
2652;SDS011;1336;48.692;9.144;2023-04-23T06:49:21;1.00;;;0.90;;
2652;SDS011;1336;48.692;9.144;2023-04-23T06:50:13;1.45;;;1.20;;
2652;SDS011;1336;48.692;9.144;2023-04-23T06:51:03;1.20;;;1.10;;
2652;SDS011;1336;48.692;9.144;2023-04-23T06:51:56;1.30;;;1.20;;
2652;SDS011;1336;48.692;9.144;2023-04-23T06:52:46;1.17;;;1.03;;
2652;SDS011;1336;48.692;9.144;2023-04-23T06:53:38;1.95;;;1.23;;
2652;SDS011;1336;48.692;9.144;2023-04-23T06:54:29;1.43;;;1.00;;
2652;SDS011;1336;48.692;9.144;2023-04-23T06:55:20;1.10;;;0.88;;
2652;SDS011;1336;48.692;9.144;2023-04-23T06:56:15;1.40;;;0.90;;
2652;SDS011;1336;48.692;9.144;2023-04-23T06:57:06;1.10;;;1.00;;
2652;SDS011;1336;48.692;9.144;2023-04-23T06:57:57;0.90;;;0.80;;
2652;SDS011;1336;48.692;9.144;2023-04-23T06:58:49;0.80;;;0.80;;
2652;SDS011;1336;48.692;9.144;2023-04-23T06:59:39;0.80;;;0.80;;
2652;SDS011;1336;48.692;9.144;2023-04-23T07:00:31;1.42;;;0.80;;
2652;SDS011;1336;48.692;9.144;2023-04-23T07:01:22;0.93;;;0.90;;
2652;SDS011;1336;48.692;9.144;2023-04-23T07:02:14;1.40;;;0.88;;
2652;SDS011;1336;48.692;9.144;2023-04-23T07:03:05;1.00;;;0.90;;
2652;SDS011;1336;48.692;9.144;2023-04-23T07:03:58;1.15;;;1.05;;
2652;SDS011;1336;48.692;9.144;2023-04-23T07:04:49;2.78;;;1.00;;
2652;SDS011;1336;48.692;9.144;2023-04-23T07:05:40;1.33;;;0.90;;
2652;SDS011;1336;48.692;9.144;2023-04-23T07:06:31;1.07;;;0.90;;
2652;SDS011;1336;48.692;9.144;2023-04-23T07:07:23;1.23;;;0.90;;
2652;SDS011;1336;48.692;9.144;2023-04-23T07:08:15;0.85;;;0.80;;
2652;SDS011;1336;48.692;9.144;2023-04-23T07:09:06;2.00;;;0.90;;
2652;SDS011;1336;48.692;9.144;2023-04-23T07:09:58;1.30;;;1.00;;
2652;SDS011;1336;48.692;9.144;2023-04-23T07:10:49;1.10;;;1.00;;
2652;SDS011;1336;48.692;9.144;2023-04-23T07:11:42;1.48;;;1.00;;
2652;SDS011;1336;48.692;9.144;2023-04-23T07:12:34;2.88;;;1.20;;
2652;SDS011;1336;48.692;9.144;2023-04-23T07:13:25;1.90;;;0.80;;
2652;SDS011;1336;48.692;9.144;2023-04-23T07:14:17;2.08;;;1.00;;
2652;SDS011;1336;48.692;9.144;2023-04-23T07:15:08;1.23;;;0.80;;
2652;SDS011;1336;48.692;9.144;2023-04-23T07:16:00;1.10;;;0.88;;
2652;SDS011;1336;48.692;9.144;2023-04-23T07:16:51;1.40;;;0.80;;
2652;SDS011;1336;48.692;9.144;2023-04-23T07:17:43;0.80;;;0.70;;
2652;SDS011;1336;48.692;9.144;2023-04-23T07:18:35;1.85;;;0.77;;
2652;SDS011;1336;48.692;9.144;2023-04-23T07:19:28;2.55;;;1.10;;
2652;SDS011;1336;48.692;9.144;2023-04-23T07:20:18;1.13;;;0.88;;
2652;SDS011;1336;48.692;9.144;2023-04-23T07:21:10;1.60;;;1.30;;
2652;SDS011;1336;48.692;9.144;2023-04-23T07:22:01;1.47;;;0.83;;
2652;SDS011;1336;48.692;9.144;2023-04-23T07:22:53;0.90;;;0.70;;
2652;SDS011;1336;48.692;9.144;2023-04-23T07:23:43;1.80;;;0.90;;
2652;SDS011;1336;48.692;9.144;2023-04-23T07:24:35;0.80;;;0.70;;
2652;SDS011;1336;48.692;9.144;2023-04-23T07:25:26;1.23;;;0.90;;
2652;SDS011;1336;48.692;9.144;2023-04-23T07:26:18;1.00;;;0.90;;
2652;SDS011;1336;48.692;9.144;2023-04-23T07:27:10;3.85;;;1.10;;
2652;SDS011;1336;48.692;9.144;2023-04-23T07:28:01;1.00;;;0.90;;
2652;SDS011;1336;48.692;9.144;2023-04-23T07:28:53;0.95;;;0.85;;
2652;SDS011;1336;48.692;9.144;2023-04-23T07:29:44;1.10;;;0.90;;
2652;SDS011;1336;48.692;9.144;2023-04-23T07:30:35;1.17;;;1.07;;
2652;SDS011;1336;48.692;9.144;2023-04-23T07:31:27;1.23;;;1.13;;
2652;SDS011;1336;48.692;9.144;2023-04-23T07:32:17;1.10;;;0.90;;
2652;SDS011;1336;48.692;9.144;2023-04-23T07:33:12;1.70;;;1.25;;
2652;SDS011;1336;48.692;9.144;2023-04-23T07:34:03;1.10;;;0.93;;
2652;SDS011;1336;48.692;9.144;2023-04-23T07:34:56;1.98;;;0.95;;
2652;SDS011;1336;48.692;9.144;2023-04-23T07:35:47;1.00;;;0.90;;
2652;SDS011;1336;48.692;9.144;2023-04-23T07:36:39;1.15;;;1.05;;
2652;SDS011;1336;48.692;9.144;2023-04-23T07:37:30;6.33;;;1.20;;
2652;SDS011;1336;48.692;9.144;2023-04-23T07:38:21;1.10;;;0.90;;
2652;SDS011;1336;48.692;9.144;2023-04-23T07:39:12;2.10;;;1.00;;
2652;SDS011;1336;48.692;9.144;2023-04-23T07:40:04;2.35;;;1.30;;
2652;SDS011;1336;48.692;9.144;2023-04-23T07:40:56;1.45;;;0.90;;
2652;SDS011;1336;48.692;9.144;2023-04-23T07:41:48;1.30;;;0.95;;
2652;SDS011;1336;48.692;9.144;2023-04-23T07:42:39;3.03;;;1.20;;
2652;SDS011;1336;48.692;9.144;2023-04-23T07:43:31;1.10;;;1.00;;
2652;SDS011;1336;48.692;9.144;2023-04-23T07:44:21;1.20;;;0.90;;
2652;SDS011;1336;48.692;9.144;2023-04-23T07:45:13;1.45;;;1.20;;
2652;SDS011;1336;48.692;9.144;2023-04-23T07:46:05;1.48;;;1.10;;
2652;SDS011;1336;48.692;9.144;2023-04-23T07:46:57;1.88;;;1.00;;
2652;SDS011;1336;48.692;9.144;2023-04-23T07:47:49;1.10;;;0.90;;
2652;SDS011;1336;48.692;9.144;2023-04-23T07:48:41;1.38;;;1.20;;
2652;SDS011;1336;48.692;9.144;2023-04-23T07:49:31;1.20;;;1.10;;
2652;SDS011;1336;48.692;9.144;2023-04-23T07:50:24;1.10;;;0.90;;
2652;SDS011;1336;48.692;9.144;2023-04-23T07:51:15;1.17;;;1.08;;
2652;SDS011;1336;48.692;9.144;2023-04-23T07:52:07;1.65;;;1.20;;
2652;SDS011;1336;48.692;9.144;2023-04-23T07:52:58;1.10;;;0.90;;
2652;SDS011;1336;48.692;9.144;2023-04-23T07:53:49;1.42;;;1.20;;
2652;SDS011;1336;48.692;9.144;2023-04-23T07:54:43;1.38;;;0.95;;
2652;SDS011;1336;48.692;9.144;2023-04-23T07:55:35;1.67;;;1.10;;
2652;SDS011;1336;48.692;9.144;2023-04-23T07:56:26;1.25;;;1.15;;
2652;SDS011;1336;48.692;9.144;2023-04-23T07:57:21;1.30;;;1.00;;
2652;SDS011;1336;48.692;9.144;2023-04-23T07:58:12;1.10;;;1.00;;
2652;SDS011;1336;48.692;9.144;2023-04-23T07:59:03;1.35;;;1.25;;
2652;SDS011;1336;48.692;9.144;2023-04-23T07:59:54;2.20;;;1.25;;
2652;SDS011;1336;48.692;9.144;2023-04-23T08:00:46;1.10;;;1.00;;
2652;SDS011;1336;48.692;9.144;2023-04-23T08:01:37;1.10;;;0.90;;
2652;SDS011;1336;48.692;9.144;2023-04-23T08:02:28;1.10;;;0.95;;
2652;SDS011;1336;48.692;9.144;2023-04-23T08:03:19;1.10;;;0.90;;
2652;SDS011;1336;48.692;9.144;2023-04-23T08:04:12;1.20;;;0.90;;
2652;SDS011;1336;48.692;9.144;2023-04-23T08:05:02;1.13;;;0.93;;
2652;SDS011;1336;48.692;9.144;2023-04-23T08:05:56;1.60;;;1.30;;
2652;SDS011;1336;48.692;9.144;2023-04-23T08:06:47;2.10;;;1.00;;
2652;SDS011;1336;48.692;9.144;2023-04-23T08:07:39;1.38;;;1.27;;
2652;SDS011;1336;48.692;9.144;2023-04-23T08:08:30;1.37;;;1.17;;
2652;SDS011;1336;48.692;9.144;2023-04-23T08:09:21;1.98;;;1.30;;
2652;SDS011;1336;48.692;9.144;2023-04-23T08:10:12;1.27;;;0.93;;
2652;SDS011;1336;48.692;9.144;2023-04-23T08:11:04;1.60;;;0.90;;
2652;SDS011;1336;48.692;9.144;2023-04-23T08:11:55;1.33;;;1.23;;
2652;SDS011;1336;48.692;9.144;2023-04-23T08:12:47;2.38;;;1.10;;
2652;SDS011;1336;48.692;9.144;2023-04-23T08:13:38;1.10;;;1.00;;
2652;SDS011;1336;48.692;9.144;2023-04-23T08:14:29;1.80;;;1.10;;
2652;SDS011;1336;48.692;9.144;2023-04-23T08:15:20;1.20;;;1.10;;
2652;SDS011;1336;48.692;9.144;2023-04-23T08:16:12;1.10;;;1.00;;
2652;SDS011;1336;48.692;9.144;2023-04-23T08:17:02;2.53;;;1.20;;
2652;SDS011;1336;48.692;9.144;2023-04-23T08:17:53;1.27;;;1.07;;
2652;SDS011;1336;48.692;9.144;2023-04-23T08:18:45;1.25;;;1.10;;
2652;SDS011;1336;48.692;9.144;2023-04-23T08:19:36;1.17;;;1.07;;
2652;SDS011;1336;48.692;9.144;2023-04-23T08:20:28;1.45;;;1.20;;
2652;SDS011;1336;48.692;9.144;2023-04-23T08:21:20;1.63;;;1.13;;
2652;SDS011;1336;48.692;9.144;2023-04-23T08:22:13;1.15;;;1.05;;
2652;SDS011;1336;48.692;9.144;2023-04-23T08:23:05;1.00;;;0.90;;
2652;SDS011;1336;48.692;9.144;2023-04-23T08:23:57;1.40;;;1.10;;
2652;SDS011;1336;48.692;9.144;2023-04-23T08:24:47;1.37;;;1.27;;
2652;SDS011;1336;48.692;9.144;2023-04-23T08:25:39;1.50;;;1.10;;
2652;SDS011;1336;48.692;9.144;2023-04-23T08:26:30;1.23;;;1.00;;
2652;SDS011;1336;48.692;9.144;2023-04-23T08:27:21;1.77;;;0.90;;
2652;SDS011;1336;48.692;9.144;2023-04-23T08:28:12;1.83;;;1.07;;
2652;SDS011;1336;48.692;9.144;2023-04-23T08:29:05;1.42;;;0.93;;
2652;SDS011;1336;48.692;9.144;2023-04-23T08:29:56;1.30;;;1.03;;
2652;SDS011;1336;48.692;9.144;2023-04-23T08:30:47;1.55;;;0.98;;
2652;SDS011;1336;48.692;9.144;2023-04-23T08:31:38;1.17;;;1.07;;
2652;SDS011;1336;48.692;9.144;2023-04-23T08:32:30;1.40;;;1.15;;
2652;SDS011;1336;48.692;9.144;2023-04-23T08:33:20;1.97;;;1.07;;
2652;SDS011;1336;48.692;9.144;2023-04-23T08:34:12;1.67;;;0.98;;
2652;SDS011;1336;48.692;9.144;2023-04-23T08:35:04;1.35;;;1.25;;
2652;SDS011;1336;48.692;9.144;2023-04-23T08:35:57;1.80;;;1.15;;
2652;SDS011;1336;48.692;9.144;2023-04-23T08:36:49;1.40;;;0.90;;
2652;SDS011;1336;48.692;9.144;2023-04-23T08:37:40;1.70;;;0.98;;
2652;SDS011;1336;48.692;9.144;2023-04-23T08:38:31;1.43;;;0.97;;
2652;SDS011;1336;48.692;9.144;2023-04-23T08:39:23;1.20;;;1.10;;
2652;SDS011;1336;48.692;9.144;2023-04-23T08:40:13;1.10;;;0.90;;
2652;SDS011;1336;48.692;9.144;2023-04-23T08:41:06;0.90;;;0.82;;
2652;SDS011;1336;48.692;9.144;2023-04-23T08:42:04;1.30;;;1.00;;
2652;SDS011;1336;48.692;9.144;2023-04-23T08:43:02;1.05;;;0.95;;
2652;SDS011;1336;48.692;9.144;2023-04-23T08:43:59;1.92;;;0.90;;
2652;SDS011;1336;48.692;9.144;2023-04-23T08:44:57;1.25;;;0.80;;
2652;SDS011;1336;48.692;9.144;2023-04-23T08:45:48;2.50;;;1.07;;
2652;SDS011;1336;48.692;9.144;2023-04-23T08:46:41;1.10;;;1.00;;
2652;SDS011;1336;48.692;9.144;2023-04-23T08:47:33;1.27;;;1.10;;
2652;SDS011;1336;48.692;9.144;2023-04-23T08:48:26;2.15;;;1.00;;
2652;SDS011;1336;48.692;9.144;2023-04-23T08:49:18;2.30;;;1.20;;
2652;SDS011;1336;48.692;9.144;2023-04-23T08:50:11;1.10;;;1.00;;
2652;SDS011;1336;48.692;9.144;2023-04-23T08:51:03;2.03;;;1.00;;
2652;SDS011;1336;48.692;9.144;2023-04-23T08:52:00;1.15;;;1.05;;
2652;SDS011;1336;48.692;9.144;2023-04-23T08:53:05;1.40;;;1.20;;
2652;SDS011;1336;48.692;9.144;2023-04-23T08:53:57;1.90;;;1.75;;
2652;SDS011;1336;48.692;9.144;2023-04-23T08:54:52;2.55;;;1.65;;
2652;SDS011;1336;48.692;9.144;2023-04-23T08:55:48;2.35;;;1.20;;
2652;SDS011;1336;48.692;9.144;2023-04-23T08:56:40;1.35;;;1.23;;
2652;SDS011;1336;48.692;9.144;2023-04-23T08:57:32;1.58;;;1.45;;
2652;SDS011;1336;48.692;9.144;2023-04-23T08:58:23;1.73;;;0.98;;
2652;SDS011;1336;48.692;9.144;2023-04-23T08:59:17;1.17;;;0.95;;
2652;SDS011;1336;48.692;9.144;2023-04-23T09:00:08;1.10;;;0.90;;
2652;SDS011;1336;48.692;9.144;2023-04-23T09:01:01;1.30;;;1.20;;
2652;SDS011;1336;48.692;9.144;2023-04-23T09:01:52;1.27;;;1.17;;
2652;SDS011;1336;48.692;9.144;2023-04-23T09:02:46;2.45;;;1.25;;
2652;SDS011;1336;48.692;9.144;2023-04-23T09:03:38;1.13;;;1.02;;
2652;SDS011;1336;48.692;9.144;2023-04-23T09:04:30;1.55;;;1.10;;
2652;SDS011;1336;48.692;9.144;2023-04-23T09:05:22;1.20;;;1.02;;
2652;SDS011;1336;48.692;9.144;2023-04-23T09:06:13;1.20;;;0.90;;
2652;SDS011;1336;48.692;9.144;2023-04-23T09:07:05;1.50;;;1.00;;
2652;SDS011;1336;48.692;9.144;2023-04-23T09:08:00;1.98;;;1.02;;
2652;SDS011;1336;48.692;9.144;2023-04-23T09:08:51;1.30;;;1.00;;
2652;SDS011;1336;48.692;9.144;2023-04-23T09:09:43;1.00;;;0.90;;
2652;SDS011;1336;48.692;9.144;2023-04-23T09:10:34;1.50;;;1.13;;
2652;SDS011;1336;48.692;9.144;2023-04-23T09:11:29;1.35;;;1.10;;
2652;SDS011;1336;48.692;9.144;2023-04-23T09:12:21;1.48;;;1.15;;
2652;SDS011;1336;48.692;9.144;2023-04-23T09:13:13;1.60;;;1.27;;
2652;SDS011;1336;48.692;9.144;2023-04-23T09:14:03;1.93;;;1.20;;
2652;SDS011;1336;48.692;9.144;2023-04-23T09:14:55;1.10;;;1.00;;
2652;SDS011;1336;48.692;9.144;2023-04-23T09:15:46;3.30;;;1.10;;
2652;SDS011;1336;48.692;9.144;2023-04-23T09:16:38;1.20;;;0.90;;
2652;SDS011;1336;48.692;9.144;2023-04-23T09:17:30;1.48;;;0.80;;
2652;SDS011;1336;48.692;9.144;2023-04-23T09:18:23;2.88;;;0.90;;
2652;SDS011;1336;48.692;9.144;2023-04-23T09:19:14;1.20;;;0.98;;
2652;SDS011;1336;48.692;9.144;2023-04-23T09:20:06;1.88;;;1.02;;
2652;SDS011;1336;48.692;9.144;2023-04-23T09:20:58;2.65;;;0.90;;
2652;SDS011;1336;48.692;9.144;2023-04-23T09:21:52;2.03;;;1.00;;
2652;SDS011;1336;48.692;9.144;2023-04-23T09:22:46;1.55;;;1.20;;
2652;SDS011;1336;48.692;9.144;2023-04-23T09:23:38;1.42;;;1.30;;
2652;SDS011;1336;48.692;9.144;2023-04-23T09:24:30;1.20;;;1.10;;
2652;SDS011;1336;48.692;9.144;2023-04-23T09:25:24;1.67;;;1.20;;
2652;SDS011;1336;48.692;9.144;2023-04-23T09:26:17;1.00;;;0.87;;
2652;SDS011;1336;48.692;9.144;2023-04-23T09:27:10;1.27;;;1.15;;
2652;SDS011;1336;48.692;9.144;2023-04-23T09:28:01;1.40;;;0.97;;
2652;SDS011;1336;48.692;9.144;2023-04-23T09:28:52;1.10;;;0.90;;
2652;SDS011;1336;48.692;9.144;2023-04-23T09:29:43;2.60;;;1.20;;
2652;SDS011;1336;48.692;9.144;2023-04-23T09:30:41;1.13;;;1.02;;
2652;SDS011;1336;48.692;9.144;2023-04-23T09:31:33;1.10;;;1.00;;
2652;SDS011;1336;48.692;9.144;2023-04-23T09:32:29;1.67;;;0.90;;
2652;SDS011;1336;48.692;9.144;2023-04-23T09:33:21;1.52;;;1.00;;
2652;SDS011;1336;48.692;9.144;2023-04-23T09:34:13;2.17;;;1.23;;
2652;SDS011;1336;48.692;9.144;2023-04-23T09:35:06;1.27;;;1.10;;
2652;SDS011;1336;48.692;9.144;2023-04-23T09:36:00;1.20;;;1.10;;
2652;SDS011;1336;48.692;9.144;2023-04-23T09:36:54;1.52;;;1.25;;
2652;SDS011;1336;48.692;9.144;2023-04-23T09:37:48;1.10;;;1.00;;
2652;SDS011;1336;48.692;9.144;2023-04-23T09:38:41;1.55;;;1.13;;
2652;SDS011;1336;48.692;9.144;2023-04-23T09:39:33;1.10;;;1.00;;
2652;SDS011;1336;48.692;9.144;2023-04-23T09:40:24;2.00;;;1.20;;
2652;SDS011;1336;48.692;9.144;2023-04-23T09:41:21;1.55;;;1.10;;
2652;SDS011;1336;48.692;9.144;2023-04-23T09:42:13;1.20;;;0.80;;
2652;SDS011;1336;48.692;9.144;2023-04-23T09:43:06;3.33;;;1.10;;
2652;SDS011;1336;48.692;9.144;2023-04-23T09:43:59;2.35;;;1.13;;
2652;SDS011;1336;48.692;9.144;2023-04-23T09:44:54;1.33;;;0.90;;
2652;SDS011;1336;48.692;9.144;2023-04-23T09:45:46;1.10;;;0.90;;
2652;SDS011;1336;48.692;9.144;2023-04-23T09:46:40;1.02;;;0.93;;
2652;SDS011;1336;48.692;9.144;2023-04-23T09:47:31;1.30;;;1.08;;
2652;SDS011;1336;48.692;9.144;2023-04-23T09:48:24;2.63;;;1.30;;
2652;SDS011;1336;48.692;9.144;2023-04-23T09:49:30;1.63;;;1.00;;
2652;SDS011;1336;48.692;9.144;2023-04-23T09:50:30;1.23;;;0.90;;
2652;SDS011;1336;48.692;9.144;2023-04-23T09:51:23;1.75;;;1.00;;
2652;SDS011;1336;48.692;9.144;2023-04-23T09:52:16;1.27;;;0.98;;
2652;SDS011;1336;48.692;9.144;2023-04-23T09:53:08;2.08;;;1.10;;
2652;SDS011;1336;48.692;9.144;2023-04-23T09:54:00;1.40;;;1.02;;
2652;SDS011;1336;48.692;9.144;2023-04-23T09:54:52;1.15;;;1.05;;
2652;SDS011;1336;48.692;9.144;2023-04-23T09:55:46;1.70;;;0.90;;
2652;SDS011;1336;48.692;9.144;2023-04-23T09:56:37;1.60;;;1.30;;
2652;SDS011;1336;48.692;9.144;2023-04-23T09:57:31;1.00;;;0.90;;
2652;SDS011;1336;48.692;9.144;2023-04-23T09:58:26;1.73;;;1.00;;
2652;SDS011;1336;48.692;9.144;2023-04-23T09:59:21;2.67;;;1.13;;
2652;SDS011;1336;48.692;9.144;2023-04-23T10:00:19;1.13;;;1.00;;
2652;SDS011;1336;48.692;9.144;2023-04-23T10:01:11;1.27;;;1.15;;
2652;SDS011;1336;48.692;9.144;2023-04-23T10:02:04;1.10;;;1.00;;
2652;SDS011;1336;48.692;9.144;2023-04-23T10:02:56;1.70;;;0.98;;
2652;SDS011;1336;48.692;9.144;2023-04-23T10:03:51;0.80;;;0.73;;
2652;SDS011;1336;48.692;9.144;2023-04-23T10:04:42;1.17;;;1.08;;
2652;SDS011;1336;48.692;9.144;2023-04-23T10:05:36;1.33;;;1.00;;
2652;SDS011;1336;48.692;9.144;2023-04-23T10:06:28;1.75;;;1.10;;
2652;SDS011;1336;48.692;9.144;2023-04-23T10:07:21;2.33;;;0.93;;
2652;SDS011;1336;48.692;9.144;2023-04-23T10:08:14;1.30;;;0.95;;
2652;SDS011;1336;48.692;9.144;2023-04-23T10:09:06;0.98;;;0.88;;
2652;SDS011;1336;48.692;9.144;2023-04-23T10:09:57;1.75;;;0.98;;
2652;SDS011;1336;48.692;9.144;2023-04-23T10:10:49;2.80;;;1.05;;
2652;SDS011;1336;48.692;9.144;2023-04-23T10:11:40;2.83;;;1.00;;
2652;SDS011;1336;48.692;9.144;2023-04-23T10:12:32;1.95;;;1.05;;
2652;SDS011;1336;48.692;9.144;2023-04-23T10:13:23;1.30;;;1.20;;
2652;SDS011;1336;48.692;9.144;2023-04-23T10:14:16;1.70;;;1.10;;
2652;SDS011;1336;48.692;9.144;2023-04-23T10:15:08;1.67;;;0.90;;
2652;SDS011;1336;48.692;9.144;2023-04-23T10:16:00;1.02;;;0.88;;
2652;SDS011;1336;48.692;9.144;2023-04-23T10:17:01;1.10;;;1.00;;
2652;SDS011;1336;48.692;9.144;2023-04-23T10:17:53;1.42;;;1.00;;
2652;SDS011;1336;48.692;9.144;2023-04-23T10:18:45;1.45;;;1.10;;
2652;SDS011;1336;48.692;9.144;2023-04-23T10:19:37;2.30;;;1.33;;
2652;SDS011;1336;48.692;9.144;2023-04-23T10:20:30;2.65;;;1.27;;
2652;SDS011;1336;48.692;9.144;2023-04-23T10:21:25;1.10;;;1.00;;
2652;SDS011;1336;48.692;9.144;2023-04-23T10:22:17;1.30;;;1.20;;
2652;SDS011;1336;48.692;9.144;2023-04-23T10:23:11;1.45;;;1.30;;